Time;durP1;ratioP1;P1;durP2;ratioP2;P2;SDS_P1;SDS_P2;PMS_P1;PMS_P2;Temp;Humidity;BMP_temperature;BMP_pressure;BME280_temperature;BME280_humidity;BME280_pressure;Samples;Min_cycle;Max_cycle;Signal;HPM_P1;HPM_P2
2023/08/06 00:00:23;;;;;;;1.73;1.35;;;;;;;23.81;100.00;96273.09;5052825;28;20479;-80
2023/08/06 00:02:49;;;;;;;4.82;1.67;;;;;;;23.77;100.00;96279.19;5072337;28;20052;-80
2023/08/06 00:05:17;;;;;;;1.75;1.27;;;;;;;23.70;100.00;96276.47;5082983;28;20025;-80
2023/08/06 00:07:47;;;;;;;1.40;1.30;;;;;;;23.54;100.00;96255.00;5063926;28;20029;-80
2023/08/06 00:10:12;;;;;;;1.95;1.40;;;;;;;23.48;100.00;96275.78;5053079;28;20028;-81
2023/08/06 00:12:38;;;;;;;2.20;1.35;;;;;;;23.42;100.00;96294.88;5052216;28;20435;-80
2023/08/06 00:15:03;;;;;;;2.08;1.55;;;;;;;23.43;100.00;96316.50;5056489;28;20173;-80
2023/08/06 00:17:29;;;;;;;1.90;1.27;;;;;;;23.48;100.00;96300.34;5085717;28;20563;-81
2023/08/06 00:19:54;;;;;;;1.85;1.23;;;;;;;23.43;100.00;96285.63;5052879;28;20082;-80
2023/08/06 00:22:20;;;;;;;2.38;1.20;;;;;;;23.46;100.00;96271.56;5069444;28;20415;-80
2023/08/06 00:24:45;;;;;;;2.20;1.60;;;;;;;23.48;100.00;96307.69;5060957;28;20100;-80
2023/08/06 00:27:11;;;;;;;2.40;1.30;;;;;;;23.34;100.00;96316.88;5069734;28;20112;-80
2023/08/06 00:29:36;;;;;;;3.10;1.60;;;;;;;23.36;100.00;96276.56;5072336;28;20020;-80
2023/08/06 00:32:02;;;;;;;4.82;1.80;;;;;;;23.38;100.00;96239.00;5066739;28;20035;-80
2023/08/06 00:34:27;;;;;;;10.02;2.20;;;;;;;23.23;100.00;96223.63;5056106;28;20141;-80
2023/08/06 00:36:54;;;;;;;9.93;2.00;;;;;;;23.02;100.00;96236.56;5072616;28;20020;-84
2023/08/06 00:39:19;;;;;;;7.95;2.03;;;;;;;22.79;100.00;96264.16;5055044;28;20052;-85
2023/08/06 00:41:45;;;;;;;8.60;2.15;;;;;;;22.38;100.00;96263.25;5075221;28;20024;-85
2023/08/06 00:44:10;;;;;;;7.03;2.10;;;;;;;21.76;100.00;96264.00;5058783;28;20028;-85
2023/08/06 00:46:36;;;;;;;6.72;1.90;;;;;;;21.55;100.00;96266.72;5069486;28;20029;-85
2023/08/06 00:49:02;;;;;;;3.63;2.10;;;;;;;21.44;100.00;96276.22;5069120;28;20480;-85
2023/08/06 00:51:27;;;;;;;5.35;2.25;;;;;;;21.40;100.00;96277.66;5081122;28;20108;-85
2023/08/06 00:53:53;;;;;;;4.88;2.00;;;;;;;21.20;100.00;96286.63;5064496;28;20479;-83
2023/08/06 00:56:19;;;;;;;3.83;1.83;;;;;;;21.15;100.00;96297.25;5060577;28;20024;-85
2023/08/06 00:58:45;;;;;;;8.00;1.80;;;;;;;21.29;100.00;96299.94;5077083;28;20056;-85
2023/08/06 01:01:11;;;;;;;6.68;2.20;;;;;;;21.37;100.00;96286.22;5077196;28;20115;-85
2023/08/06 01:03:36;;;;;;;12.90;2.08;;;;;;;21.35;100.00;96287.44;5056553;28;20538;-85
2023/08/06 01:06:08;;;;;;;3.70;1.98;;;;;;;21.39;100.00;96277.84;5056839;28;20021;-85
2023/08/06 01:09:01;;;;;;;7.05;1.73;;;;;;;21.33;100.00;96246.81;5072248;28;20097;-85
2023/08/06 01:11:38;;;;;;;4.18;1.80;;;;;;;21.26;100.00;96255.94;5036356;28;20520;-84
2023/08/06 01:14:15;;;;;;;6.43;2.10;;;;;;;21.33;100.00;96245.97;5038267;28;20476;-84
2023/08/06 01:16:41;;;;;;;4.03;1.67;;;;;;;21.34;100.00;96239.50;5068484;28;20033;-85
2023/08/06 01:19:16;;;;;;;5.25;2.05;;;;;;;21.37;100.00;96241.84;5057326;28;20158;-86
2023/08/06 01:21:42;;;;;;;2.83;2.17;;;;;;;21.30;100.00;96235.47;5072416;28;20032;-85
2023/08/06 01:24:07;;;;;;;2.60;2.00;;;;;;;21.37;100.00;96248.13;5074166;28;20452;-85
2023/08/06 01:26:39;;;;;;;3.78;1.95;;;;;;;21.49;100.00;96230.25;5038775;28;20043;-86
2023/08/06 01:29:24;;;;;;;4.18;2.17;;;;;;;21.40;100.00;96220.53;5056009;28;20052;-86
2023/08/06 01:31:51;;;;;;;4.32;2.05;;;;;;;21.41;100.00;96199.63;5055493;28;20078;-86
2023/08/06 01:34:24;;;;;;;3.22;1.77;;;;;;;21.37;100.00;96226.38;5057413;28;20360;-86
2023/08/06 01:36:50;;;;;;;6.35;1.98;;;;;;;21.27;100.00;96206.78;5055568;28;20116;-84
2023/08/06 01:39:16;;;;;;;3.50;2.10;;;;;;;21.35;100.00;96224.88;5053365;28;20071;-83
2023/08/06 01:41:41;;;;;;;4.43;2.00;;;;;;;21.32;100.00;96219.84;5061837;28;20392;-85
2023/08/06 01:44:07;;;;;;;5.40;1.85;;;;;;;21.27;100.00;96217.69;5040486;28;20458;-84
2023/08/06 01:46:32;;;;;;;4.70;2.15;;;;;;;21.09;100.00;96206.41;5069218;28;20463;-84
2023/08/06 01:48:58;;;;;;;6.05;2.03;;;;;;;21.04;100.00;96182.47;5055854;28;20023;-85
2023/08/06 01:51:23;;;;;;;4.68;1.90;;;;;;;21.03;100.00;96180.78;5058258;28;20027;-84
2023/08/06 01:53:49;;;;;;;4.35;1.90;;;;;;;20.99;100.00;96182.22;5055513;28;20029;-85
2023/08/06 01:56:14;;;;;;;3.03;2.13;;;;;;;21.03;100.00;96194.38;5058867;28;20415;-79
2023/08/06 01:58:40;;;;;;;3.90;2.00;;;;;;;20.95;100.00;96191.78;5077485;28;20024;-79
2023/08/06 02:01:05;;;;;;;3.92;2.10;;;;;;;20.90;100.00;96180.66;5070684;28;20059;-79
2023/08/06 02:03:31;;;;;;;4.65;2.08;;;;;;;20.94;100.00;96192.81;5071330;28;20024;-80
2023/08/06 02:05:56;;;;;;;5.30;2.17;;;;;;;20.82;100.00;96194.38;5080577;28;20032;-79
2023/08/06 02:08:22;;;;;;;3.25;1.80;;;;;;;20.77;100.00;96183.19;5092687;28;20043;-80
2023/08/06 02:10:47;;;;;;;3.75;1.92;;;;;;;20.73;100.00;96202.81;5084491;28;20074;-80
2023/08/06 02:13:13;;;;;;;2.58;1.90;;;;;;;20.74;100.00;96190.91;5090132;28;20036;-80
2023/08/06 02:15:43;;;;;;;4.63;2.10;;;;;;;20.77;100.00;96188.63;5077912;28;20035;-80
2023/08/06 02:18:09;;;;;;;4.60;2.00;;;;;;;20.85;100.00;96201.28;5055640;28;20040;-80
2023/08/06 02:20:34;;;;;;;3.83;1.90;;;;;;;20.85;100.00;96185.81;5103924;28;20123;-77
2023/08/06 02:23:00;;;;;;;2.97;1.90;;;;;;;20.92;100.00;96197.59;5080854;28;20082;-79
2023/08/06 02:25:25;;;;;;;2.53;2.00;;;;;;;20.94;100.00;96195.53;5087878;28;20344;-80
2023/08/06 02:28:00;;;;;;;3.53;2.28;;;;;;;20.94;100.00;96197.41;5091020;28;20028;-80
2023/08/06 02:30:25;;;;;;;4.80;2.20;;;;;;;20.86;100.00;96181.22;5086895;28;20024;-81
2023/08/06 02:32:51;;;;;;;4.68;2.38;;;;;;;20.80;100.00;96179.25;5060266;28;20374;-79
2023/08/06 02:35:16;;;;;;;5.20;2.00;;;;;;;20.78;100.00;96178.63;5081340;28;20024;-80
2023/08/06 02:37:42;;;;;;;3.15;2.00;;;;;;;20.74;100.00;96178.16;5088807;28;20041;-79
2023/08/06 02:40:08;;;;;;;11.85;2.20;;;;;;;20.74;100.00;96189.03;5074830;28;20032;-80
2023/08/06 02:42:34;;;;;;;3.47;2.22;;;;;;;20.70;100.00;96195.03;5062664;28;20480;-79
2023/08/06 02:45:00;;;;;;;3.33;2.20;;;;;;;20.72;100.00;96191.09;5068482;28;20017;-79
2023/08/06 02:47:26;;;;;;;4.72;2.20;;;;;;;20.76;100.00;96206.00;5066855;28;20035;-80
2023/08/06 02:49:51;;;;;;;3.40;2.03;;;;;;;20.68;100.00;96197.94;5059316;28;20033;-77
2023/08/06 02:52:17;;;;;;;2.35;1.88;;;;;;;20.63;100.00;96202.25;5072094;28;20016;-79
2023/08/06 02:54:42;;;;;;;4.38;2.28;;;;;;;20.82;100.00;96199.81;5083194;28;20045;-80
2023/08/06 02:57:08;;;;;;;6.70;2.22;;;;;;;20.81;100.00;96206.25;5053901;28;20024;-79
2023/08/06 02:59:33;;;;;;;3.83;2.25;;;;;;;20.93;100.00;96207.44;5067396;28;20132;-80
2023/08/06 03:01:59;;;;;;;4.47;2.67;;;;;;;20.92;100.00;96211.19;5053374;28;20101;-80
2023/08/06 03:04:24;;;;;;;3.65;2.47;;;;;;;20.95;100.00;96216.25;5063700;28;20473;-80
2023/08/06 03:06:50;;;;;;;4.18;2.40;;;;;;;21.01;100.00;96234.50;5098823;28;20028;-79
2023/08/06 03:09:17;;;;;;;3.78;2.58;;;;;;;20.94;100.00;96235.47;5081168;28;20474;-80
2023/08/06 03:11:42;;;;;;;3.88;2.75;;;;;;;20.89;100.00;96229.75;5059081;28;20484;-80
2023/08/06 03:14:08;;;;;;;7.05;2.72;;;;;;;21.01;100.00;96231.78;5059836;28;20036;-80
2023/08/06 03:16:33;;;;;;;5.28;2.75;;;;;;;20.95;100.00;96231.72;5077655;28;20065;-80
2023/08/06 03:18:59;;;;;;;5.28;2.85;;;;;;;20.91;100.00;96225.84;5045344;28;20044;-78
2023/08/06 03:21:24;;;;;;;4.90;2.63;;;;;;;20.93;100.00;96229.19;5083654;28;20020;-80
2023/08/06 03:23:50;;;;;;;5.35;2.47;;;;;;;20.89;100.00;96214.28;5079137;28;20050;-80
2023/08/06 03:26:15;;;;;;;14.25;2.63;;;;;;;20.99;100.00;96217.56;5079227;28;20041;-80
2023/08/06 03:28:41;;;;;;;5.57;2.50;;;;;;;21.01;100.00;96204.59;5083478;28;20025;-80
2023/08/06 03:31:06;;;;;;;6.53;2.40;;;;;;;21.06;100.00;96204.88;5082967;28;20021;-79
2023/08/06 03:33:32;;;;;;;9.35;5.55;;;;;;;21.02;100.00;96191.84;5079902;28;20032;-80
2023/08/06 03:35:57;;;;;;;4.57;2.38;;;;;;;21.05;100.00;96208.63;5079299;28;20024;-79
2023/08/06 03:38:23;;;;;;;10.60;2.72;;;;;;;21.00;100.00;96235.56;5067798;28;20041;-80
2023/08/06 03:40:49;;;;;;;3.47;2.20;;;;;;;21.02;100.00;96236.19;5074331;28;20025;-80
2023/08/06 03:43:15;;;;;;;4.55;2.55;;;;;;;21.06;100.00;96229.34;5073786;28;20078;-80
2023/08/06 03:45:41;;;;;;;4.97;2.13;;;;;;;21.01;100.00;96234.50;5082841;28;20036;-81
2023/08/06 03:48:07;;;;;;;5.10;2.30;;;;;;;20.94;100.00;96230.88;5069419;28;20028;-78
2023/08/06 03:50:33;;;;;;;5.22;2.33;;;;;;;20.90;100.00;96217.84;5084971;28;20166;-79
2023/08/06 03:52:58;;;;;;;6.40;2.60;;;;;;;21.04;100.00;96225.16;5090313;28;20022;-79
2023/08/06 03:55:23;;;;;;;4.45;2.50;;;;;;;21.04;100.00;96227.88;5092330;28;20039;-80
2023/08/06 03:57:49;;;;;;;3.33;2.50;;;;;;;21.03;100.00;96223.44;5074301;28;20032;-80
2023/08/06 04:00:15;;;;;;;5.50;2.50;;;;;;;21.02;100.00;96208.16;5090632;28;20028;-80
2023/08/06 04:02:40;;;;;;;5.32;2.65;;;;;;;20.89;100.00;96187.09;5104764;28;20016;-80
2023/08/06 04:05:06;;;;;;;5.47;2.60;;;;;;;21.04;100.00;96220.53;5098048;28;20028;-77
2023/08/06 04:07:31;;;;;;;5.93;2.42;;;;;;;20.90;100.00;96264.91;5079583;28;20173;-80
2023/08/06 04:09:58;;;;;;;7.10;1.92;;;;;;;20.45;100.00;96333.91;5088152;28;20017;-79
2023/08/06 04:12:24;;;;;;;0.38;0.38;;;;;;;20.01;100.00;96369.09;5067860;28;20047;-82
2023/08/06 04:14:51;;;;;;;0.15;0.15;;;;;;;19.48;100.00;96352.84;5067002;28;20491;-87
2023/08/06 04:17:16;;;;;;;6.03;0.20;;;;;;;18.89;100.00;96257.59;5066031;28;20016;-81
2023/08/06 04:19:42;;;;;;;0.10;0.10;;;;;;;18.63;100.00;96224.56;5082041;28;20027;-82
2023/08/06 04:22:07;;;;;;;0.00;0.00;;;;;;;18.58;100.00;96226.94;5082784;28;20020;-81
2023/08/06 04:24:33;;;;;;;0.00;0.00;;;;;;;18.57;100.00;96233.41;5053116;28;20021;-80
2023/08/06 04:26:58;;;;;;;0.10;0.10;;;;;;;18.41;100.00;96242.41;5073268;28;20023;-79
2023/08/06 04:29:24;;;;;;;0.17;0.17;;;;;;;18.35;100.00;96232.25;5086688;28;20024;-80
2023/08/06 04:31:49;;;;;;;;;;;;;;;18.38;100.00;96241.91;5077897;28;20055;-80
2023/08/06 04:34:14;;;;;;;;;;;;;;;18.20;100.00;96244.84;5077616;28;19928;-77
2023/08/06 04:36:40;;;;;;;;;;;;;;;18.20;100.00;96271.91;5096403;28;19920;-81
2023/08/06 04:39:05;;;;;;;;;;;;;;;18.27;100.00;96282.91;5097751;28;19904;-80
2023/08/06 04:41:31;;;;;;;1.55;0.38;;;;;;;18.36;100.00;96274.53;5075958;28;19920;-83
2023/08/06 04:43:57;;;;;;;3.85;0.63;;;;;;;18.50;100.00;96267.59;5075676;28;20011;-81
2023/08/06 04:46:22;;;;;;;5.70;2.75;;;;;;;18.62;100.00;96270.75;5079402;28;20134;-78
2023/08/06 04:48:48;;;;;;;0.20;0.20;;;;;;;18.57;100.00;96252.34;5109328;28;20021;-82
2023/08/06 04:51:14;;;;;;;0.10;0.10;;;;;;;18.49;100.00;96240.69;5087578;28;20028;-82
2023/08/06 04:53:39;;;;;;;0.30;0.28;;;;;;;18.58;100.00;96236.94;5098506;28;20032;-82
2023/08/06 04:56:05;;;;;;;0.20;0.20;;;;;;;18.74;100.00;96253.09;5099026;28;20038;-81
2023/08/06 04:58:30;;;;;;;1.15;0.50;;;;;;;18.73;100.00;96214.34;5103963;28;20070;-83
2023/08/06 05:00:56;;;;;;;0.52;0.52;;;;;;;18.88;100.00;96212.56;5112397;28;20027;-82
2023/08/06 05:03:22;;;;;;;1.75;0.70;;;;;;;18.93;100.00;96217.44;5133120;27;20108;-81
2023/08/06 05:05:47;;;;;;;4.43;2.90;;;;;;;18.95;100.00;96215.38;5088515;28;20035;-81
2023/08/06 05:08:19;;;;;;;0.00;0.00;;;;;;;18.85;100.00;96215.63;5102472;28;20020;-83
2023/08/06 05:10:45;;;;;;;13.57;1.23;;;;;;;18.92;100.00;96235.56;5080117;28;20075;-82
2023/08/06 05:13:10;;;;;;;0.10;0.10;;;;;;;18.89;100.00;96256.75;5079621;28;20074;-82
2023/08/06 05:15:36;;;;;;;2.22;1.15;;;;;;;18.86;100.00;96252.53;5081770;28;20454;-82
2023/08/06 05:18:02;;;;;;;0.40;0.40;;;;;;;18.91;100.00;96228.47;5075445;28;20120;-83
2023/08/06 05:20:27;;;;;;;0.77;0.22;;;;;;;19.10;100.00;96245.28;5057462;28;20028;-80
2023/08/06 05:22:53;;;;;;;1.08;0.63;;;;;;;19.39;100.00;96258.97;5050152;28;20017;-83
2023/08/06 05:25:18;;;;;;;0.45;0.20;;;;;;;19.40;100.00;96255.28;5073052;28;20024;-84
2023/08/06 05:27:44;;;;;;;2.50;1.75;;;;;;;19.41;100.00;96244.22;5074577;28;20036;-82
2023/08/06 05:30:10;;;;;;;2.47;1.92;;;;;;;19.48;100.00;96236.22;5055930;28;20467;-86
2023/08/06 05:32:35;;;;;;;0.70;0.38;;;;;;;19.50;100.00;96234.19;5072943;28;20654;-87
2023/08/06 05:35:01;;;;;;;17.20;3.33;;;;;;;19.53;100.00;96238.38;5058761;28;20028;-85
2023/08/06 05:37:27;;;;;;;10.30;2.03;;;;;;;19.55;100.00;96231.75;5059811;28;20217;-83
2023/08/06 05:39:52;;;;;;;0.00;0.00;;;;;;;19.66;100.00;96231.31;5073309;28;20144;-83
2023/08/06 05:42:18;;;;;;;1.70;0.70;;;;;;;19.64;100.00;96230.66;5038173;28;20483;-82
2023/08/06 05:44:43;;;;;;;0.13;0.13;;;;;;;19.67;100.00;96230.28;5054666;28;20125;-82
2023/08/06 05:47:09;;;;;;;0.00;0.00;;;;;;;19.69;100.00;96211.94;5086498;28;20038;-83
2023/08/06 05:49:34;;;;;;;0.40;0.30;;;;;;;19.73;100.00;96207.84;5073353;28;20028;-82
2023/08/06 05:52:00;;;;;;;0.10;0.10;;;;;;;19.73;100.00;96226.84;5076966;28;20393;-82
2023/08/06 05:54:25;;;;;;;0.10;0.10;;;;;;;19.75;100.00;96227.47;5072519;28;20062;-82
2023/08/06 05:56:50;;;;;;;0.30;0.30;;;;;;;19.74;100.00;96255.66;5072064;28;20388;-83
2023/08/06 05:59:16;;;;;;;0.05;0.05;;;;;;;19.63;100.00;96266.94;5054249;28;20017;-83
2023/08/06 06:01:41;;;;;;;0.00;0.00;;;;;;;19.61;100.00;96285.28;5073545;28;20558;-81
2023/08/06 06:04:07;;;;;;;0.13;0.13;;;;;;;19.51;100.00;96276.53;5072365;28;20012;-87
2023/08/06 06:06:32;;;;;;;6.40;2.55;;;;;;;19.66;100.00;96277.44;5056136;28;20028;-87
2023/08/06 06:08:58;;;;;;;2.45;0.70;;;;;;;19.91;100.00;96276.19;5056887;28;20028;-80
2023/08/06 06:11:23;;;;;;;4.32;2.38;;;;;;;20.14;100.00;96276.16;5073422;28;20032;-71
2023/08/06 06:13:51;;;;;;;1.55;1.42;;;;;;;20.27;100.00;96275.56;5087477;28;20035;-70
2023/08/06 06:16:16;;;;;;;1.77;1.48;;;;;;;20.37;100.00;96259.78;5072017;28;20021;-70
2023/08/06 06:18:42;;;;;;;0.55;0.40;;;;;;;20.47;100.00;96254.94;5049601;28;20423;-71
2023/08/06 06:21:07;;;;;;;0.20;0.17;;;;;;;20.44;100.00;96255.31;5031580;28;20050;-71
2023/08/06 06:23:33;;;;;;;0.80;0.68;;;;;;;20.28;100.00;96256.34;5063775;28;20020;-82
2023/08/06 06:25:59;;;;;;;0.30;0.30;;;;;;;20.42;100.00;96260.09;5053254;28;20028;-69
2023/08/06 06:28:25;;;;;;;0.10;0.10;;;;;;;20.55;100.00;96266.53;5053118;28;20047;-79
2023/08/06 06:30:51;;;;;;;0.05;0.05;;;;;;;20.68;100.00;96256.88;5070881;28;20020;-77
2023/08/06 06:33:16;;;;;;;0.25;0.25;;;;;;;20.78;100.00;96252.00;5039452;28;20573;-78
2023/08/06 06:35:42;;;;;;;0.47;0.40;;;;;;;20.99;100.00;96258.34;5070156;28;20111;-70
2023/08/06 06:38:08;;;;;;;2.35;1.48;;;;;;;21.13;100.00;96267.53;5052789;28;20042;-70
2023/08/06 06:40:34;;;;;;;0.13;0.13;;;;;;;21.02;100.00;96267.97;5071321;28;20027;-69
2023/08/06 06:42:59;;;;;;;0.20;0.10;;;;;;;20.99;100.00;96271.09;5077277;28;20610;-69
2023/08/06 06:45:25;;;;;;;0.10;0.10;;;;;;;21.15;100.00;96259.16;5071094;28;20063;-70
2023/08/06 06:47:50;;;;;;;1.55;0.17;;;;;;;21.40;100.00;96249.63;5053346;28;20032;-69
2023/08/06 06:50:16;;;;;;;1.67;0.85;;;;;;;21.70;100.00;96253.88;5053080;28;20170;-69
2023/08/06 06:52:44;;;;;;;1.58;0.38;;;;;;;21.96;100.00;96248.72;5073327;28;20033;-69
2023/08/06 06:55:10;;;;;;;0.20;0.13;;;;;;;22.19;100.00;96258.50;5070554;28;20035;-71
2023/08/06 06:57:35;;;;;;;2.00;1.17;;;;;;;22.54;100.00;96241.13;5070847;28;20024;-69
2023/08/06 07:00:01;;;;;;;0.00;0.00;;;;;;;23.18;100.00;96256.16;5076177;28;20020;-69
2023/08/06 07:02:26;;;;;;;0.20;0.20;;;;;;;23.63;100.00;96227.28;5086893;28;20044;-69
2023/08/06 07:04:52;;;;;;;0.75;0.40;;;;;;;23.87;100.00;96242.22;5080527;28;20461;-69
2023/08/06 07:07:17;;;;;;;0.13;0.10;;;;;;;24.12;100.00;96231.53;5064141;28;20037;-70
2023/08/06 07:09:44;;;;;;;0.88;0.55;;;;;;;24.91;100.00;96254.13;5036279;28;20042;-69
2023/08/06 07:12:09;;;;;;;0.08;0.08;;;;;;;25.47;100.00;96234.28;5053008;28;20021;-70
2023/08/06 07:14:35;;;;;;;0.13;0.13;;;;;;;26.46;100.00;96234.38;5036324;28;20039;-71
2023/08/06 07:17:00;;;;;;;0.00;0.00;;;;;;;26.66;100.00;96235.03;5070893;28;20123;-70
2023/08/06 07:19:26;;;;;;;0.00;0.00;;;;;;;26.19;100.00;96226.41;5070391;28;20036;-70
2023/08/06 07:21:52;;;;;;;0.77;0.20;;;;;;;25.78;100.00;96228.81;5053140;28;20039;-70
2023/08/06 07:24:17;;;;;;;0.28;0.28;;;;;;;26.28;100.00;96227.81;5070536;28;20024;-71
2023/08/06 07:26:43;;;;;;;0.32;0.32;;;;;;;26.50;100.00;96222.75;5068880;28;20468;-70
2023/08/06 07:29:08;;;;;;;0.35;0.13;;;;;;;27.48;100.00;96225.41;5036199;28;20036;-69
2023/08/06 07:31:34;;;;;;;0.28;0.28;;;;;;;28.96;100.00;96214.03;5067438;28;20127;-69
2023/08/06 07:33:59;;;;;;;0.10;0.10;;;;;;;30.06;100.00;96208.19;5083398;28;20028;-69
2023/08/06 07:36:25;;;;;;;0.70;0.45;;;;;;;30.53;100.00;96220.59;5072341;28;20107;-69
2023/08/06 07:38:55;;;;;;;0.70;0.47;;;;;;;30.77;100.00;96209.34;5037284;28;20048;-69
2023/08/06 07:41:22;;;;;;;0.00;0.00;;;;;;;31.80;96.81;96205.72;5033170;28;20033;-69
2023/08/06 07:43:48;;;;;;;0.20;0.20;;;;;;;31.85;89.71;96200.22;5035604;28;20032;-70
2023/08/06 07:46:14;;;;;;;0.00;0.00;;;;;;;31.85;89.71;96206.59;5033010;28;20112;-72
2023/08/06 07:48:39;;;;;;;0.52;0.32;;;;;;;31.87;90.52;96209.13;5031435;28;20108;-70
2023/08/06 07:51:05;;;;;;;0.63;0.20;;;;;;;32.58;82.66;96197.59;5030259;28;20032;-68
2023/08/06 07:53:30;;;;;;;0.30;0.25;;;;;;;33.51;71.10;96181.16;5049535;28;20037;-76
2023/08/06 07:55:56;;;;;;;0.00;0.00;;;;;;;34.35;66.09;96173.31;5032202;28;20062;-76
2023/08/06 07:58:23;;;;;;;0.30;0.30;;;;;;;34.34;66.95;96179.97;5031433;28;20057;-76
2023/08/06 08:00:49;;;;;;;0.30;0.30;;;;;;;34.68;62.38;96177.44;5033212;28;20024;-76
2023/08/06 08:03:15;;;;;;;0.17;0.17;;;;;;;34.61;72.16;96188.03;5050092;28;20032;-76
2023/08/06 08:05:42;;;;;;;0.25;0.20;;;;;;;34.52;71.01;96184.09;5014300;28;20029;-76
2023/08/06 08:08:07;;;;;;;0.82;0.43;;;;;;;34.20;72.97;96184.41;5014250;28;20033;-75
2023/08/06 08:10:34;;;;;;;0.32;0.32;;;;;;;34.80;73.89;96189.09;5030193;28;20071;-75
2023/08/06 08:13:02;;;;;;;0.38;0.28;;;;;;;34.81;64.91;96185.22;5014293;28;20037;-75
2023/08/06 08:15:28;;;;;;;0.20;0.10;;;;;;;35.17;68.09;96189.59;5030464;28;20036;-76
2023/08/06 08:17:54;;;;;;;0.10;0.10;;;;;;;35.41;62.68;96175.84;5048304;28;20353;-76
2023/08/06 08:20:20;;;;;;;0.73;0.68;;;;;;;36.19;54.95;96174.03;5048184;28;20037;-75
2023/08/06 08:22:46;;;;;;;0.32;0.32;;;;;;;36.75;52.94;96170.78;5029974;28;20029;-76
2023/08/06 08:25:11;;;;;;;0.22;0.10;;;;;;;36.80;50.88;96177.13;5047917;28;20052;-76
2023/08/06 08:27:37;;;;;;;2.13;0.55;;;;;;;37.00;48.90;96172.50;5029951;28;20040;-78
2023/08/06 08:30:03;;;;;;;9.48;2.40;;;;;;;37.63;48.17;96164.75;5013977;28;20028;-77
2023/08/06 08:32:28;;;;;;;3.80;1.90;;;;;;;38.74;45.30;96163.00;5030474;28;20041;-76
2023/08/06 08:34:53;;;;;;;4.38;2.22;;;;;;;38.60;44.74;96157.41;5046282;28;20036;-76
2023/08/06 08:37:19;;;;;;;6.90;2.20;;;;;;;37.17;46.55;96162.53;5015652;28;20037;-76
2023/08/06 08:39:44;;;;;;;4.07;2.00;;;;;;;34.58;51.32;96153.25;5042206;28;20442;-76
2023/08/06 08:42:10;;;;;;;5.35;2.25;;;;;;;34.13;58.07;96161.63;5047877;28;20056;-76
2023/08/06 08:44:39;;;;;;;5.35;2.38;;;;;;;34.94;53.46;96150.44;5029961;28;20037;-76
2023/08/06 08:47:09;;;;;;;6.10;2.55;;;;;;;35.81;55.11;96153.38;5046563;28;20111;-76
2023/08/06 08:49:35;;;;;;;4.60;2.10;;;;;;;35.27;51.26;96152.56;5036811;28;20040;-77
2023/08/06 08:52:02;;;;;;;3.75;2.28;;;;;;;35.38;53.11;96157.78;5041665;28;20111;-76
2023/08/06 08:54:28;;;;;;;6.38;2.67;;;;;;;36.32;48.29;96133.53;5032138;28;20040;-77
2023/08/06 08:56:55;;;;;;;28.23;4.07;;;;;;;37.12;49.40;96153.38;5048960;28;20112;-77
2023/08/06 08:59:20;;;;;;;3.15;2.47;;;;;;;36.70;49.29;96137.38;5029503;28;20173;-78
2023/08/06 09:01:51;;;;;;;7.50;2.22;;;;;;;36.36;52.62;96141.00;5047460;28;20554;-77
2023/08/06 09:04:17;;;;;;;6.53;3.08;;;;;;;36.68;49.42;96137.66;5026227;28;20178;-79
2023/08/06 09:06:43;;;;;;;5.03;3.22;;;;;;;34.95;54.98;96141.00;5053952;28;20507;-78
2023/08/06 09:09:12;;;;;;;4.00;2.03;;;;;;;34.92;54.79;96141.56;5026613;28;20048;-78
2023/08/06 09:11:43;;;;;;;9.55;2.47;;;;;;;36.82;49.57;96138.66;5069049;28;20479;-79
2023/08/06 09:14:09;;;;;;;;;;;;;;;37.88;46.19;96128.91;5041154;28;20078;-75
2023/08/06 09:16:35;;;;;;;12.85;2.10;;;;;;;38.57;44.70;96124.47;5044382;28;19958;-79
2023/08/06 09:19:10;;;;;;;2.10;1.83;;;;;;;37.88;46.42;96117.75;5068783;28;20107;-76
2023/08/06 09:21:40;;;;;;;4.05;2.30;;;;;;;38.22;45.09;96116.66;5046883;28;20031;-78
2023/08/06 09:24:09;;;;;;;2.13;1.90;;;;;;;37.82;46.30;96118.13;5046006;28;20047;-76
2023/08/06 09:26:36;;;;;;;6.25;1.83;;;;;;;37.10;46.17;96120.19;5045800;28;20553;-76
2023/08/06 09:29:05;;;;;;;4.55;2.05;;;;;;;37.44;46.52;96128.41;5064438;28;20049;-76
2023/08/06 09:31:44;;;;;;;4.85;2.20;;;;;;;37.82;45.31;96134.88;5045539;28;20016;-77
2023/08/06 09:34:12;;;;;;;5.28;2.13;;;;;;;38.09;45.49;96135.03;5042287;28;20065;-77
2023/08/06 09:36:42;;;;;;;8.73;1.80;;;;;;;37.76;44.11;96128.53;5030716;28;20361;-77
2023/08/06 09:39:21;;;;;;;5.78;2.00;;;;;;;38.83;42.27;96117.28;5033850;28;20074;-77
2023/08/06 09:41:50;;;;;;;9.57;2.95;;;;;;;39.01;41.92;96113.56;5052653;28;20047;-77
2023/08/06 09:44:21;;;;;;;5.90;2.20;;;;;;;38.27;41.83;96124.97;5047639;28;20174;-77
2023/08/06 09:46:51;;;;;;;2.38;2.05;;;;;;;36.46;46.21;96142.88;5050718;28;20111;-76
2023/08/06 09:49:19;;;;;;;5.80;2.63;;;;;;;36.63;47.20;96142.47;5034425;28;20032;-77
2023/08/06 09:51:50;;;;;;;4.20;2.75;;;;;;;37.41;46.68;96154.97;5026289;28;20024;-77
2023/08/06 09:54:17;;;;;;;4.65;1.95;;;;;;;38.10;43.08;96147.03;5052918;28;20029;-77
2023/08/06 09:56:43;;;;;;;3.33;2.10;;;;;;;37.06;45.35;96152.63;5054004;28;20040;-78
2023/08/06 09:59:08;;;;;;;3.35;2.30;;;;;;;35.94;49.40;96156.66;5036402;28;20032;-77
2023/08/06 10:01:35;;;;;;;5.72;2.25;;;;;;;36.04;49.77;96160.19;5045408;28;20115;-79
2023/08/06 10:04:10;;;;;;;5.28;1.80;;;;;;;37.04;46.74;96145.69;5049373;28;20024;-78
2023/08/06 10:06:36;;;;;;;12.43;1.85;;;;;;;38.08;45.17;96152.13;5063204;28;20569;-78
2023/08/06 10:09:03;;;;;;;4.88;2.10;;;;;;;38.47;43.93;96155.41;5065605;28;20027;-78
2023/08/06 10:11:29;;;;;;;2.53;1.83;;;;;;;39.78;42.04;96161.22;5083875;28;20031;-78
2023/08/06 10:14:04;;;;;;;4.90;2.08;;;;;;;40.12;40.95;96162.75;5061471;28;20472;-78
2023/08/06 10:16:31;;;;;;;6.70;2.00;;;;;;;40.23;40.23;96153.78;5062964;28;20107;-79
2023/08/06 10:18:57;;;;;;;5.35;1.90;;;;;;;39.51;39.69;96162.09;5039839;28;20021;-78
2023/08/06 10:21:27;;;;;;;5.70;2.00;;;;;;;38.45;41.69;96166.06;5047710;28;20047;-78
2023/08/06 10:23:54;;;;;;;11.75;2.25;;;;;;;39.14;40.88;96161.44;5081929;28;20085;-78
2023/08/06 10:26:20;;;;;;;1.77;1.63;;;;;;;38.63;41.20;96154.00;5071116;28;20059;-78
2023/08/06 10:28:45;;;;;;;2.03;1.70;;;;;;;37.99;41.67;96163.16;5048291;28;20063;-78
2023/08/06 10:31:11;;;;;;;6.35;2.20;;;;;;;36.28;45.64;96161.16;5049592;28;20021;-77
2023/08/06 10:33:46;;;;;;;2.92;1.90;;;;;;;34.35;50.88;96170.53;5070768;28;20484;-77
2023/08/06 10:36:13;;;;;;;5.53;2.03;;;;;;;34.44;54.61;96174.41;5044703;28;20249;-78
2023/08/06 10:38:50;;;;;;;3.90;2.00;;;;;;;34.61;54.27;96191.63;5050664;28;20483;-78
2023/08/06 10:41:24;;;;;;;5.03;2.15;;;;;;;33.66;56.79;96195.13;5038990;28;20029;-78
2023/08/06 10:43:49;;;;;;;9.65;2.78;;;;;;;32.62;63.63;96209.81;5054055;28;20024;-76
2023/08/06 10:46:27;;;;;;;11.45;6.53;;;;;;;31.44;71.33;96219.09;5053715;28;20403;-75
2023/08/06 10:48:53;;;;;;;6.78;2.72;;;;;;;30.43;82.81;96225.97;5054011;28;20029;-77
2023/08/06 10:51:18;;;;;;;11.65;2.95;;;;;;;30.04;86.58;96226.94;5070189;28;20028;-76
2023/08/06 10:53:45;;;;;;;5.90;2.38;;;;;;;29.42;100.00;96237.88;5071553;28;20462;-77
2023/08/06 10:56:18;;;;;;;5.60;2.30;;;;;;;30.40;95.26;96225.63;5053449;28;20215;-78
2023/08/06 10:58:44;;;;;;;2.30;2.10;;;;;;;31.61;80.20;96222.69;5070055;28;20380;-78
2023/08/06 11:01:10;;;;;;;5.78;2.10;;;;;;;31.41;79.57;96227.91;5036804;28;20071;-78
2023/08/06 11:03:37;;;;;;;3.03;2.33;;;;;;;31.00;80.64;96226.59;5053503;28;20019;-76
2023/08/06 11:06:03;;;;;;;13.88;2.75;;;;;;;30.96;80.25;96224.56;5070010;28;20036;-76
2023/08/06 11:08:32;;;;;;;5.90;2.03;;;;;;;31.09;76.31;96224.22;5053011;28;20032;-76
2023/08/06 11:11:08;;;;;;;5.43;1.95;;;;;;;31.58;71.92;96220.44;5036506;28;20017;-76
2023/08/06 11:13:34;;;;;;;4.97;2.08;;;;;;;32.41;67.11;96209.91;5053198;28;20507;-77
2023/08/06 11:16:00;;;;;;;8.82;2.50;;;;;;;32.61;63.65;96218.38;5053186;28;20028;-79
2023/08/06 11:18:25;;;;;;;5.28;2.03;;;;;;;32.25;65.21;96222.78;5052532;28;20031;-80
2023/08/06 11:20:51;;;;;;;6.53;2.30;;;;;;;31.91;68.65;96216.63;5053136;28;20024;-78
2023/08/06 11:23:16;;;;;;;4.15;2.30;;;;;;;31.69;69.36;96222.19;5070668;28;20020;-79
2023/08/06 11:25:45;;;;;;;3.35;2.40;;;;;;;30.99;73.07;96213.84;5086319;28;20020;-80